createdAt,value
2019-01-12T00:01:10.818Z,1.80
2019-01-12T00:03:40.487Z,2.20
2019-01-12T00:06:10.246Z,2.20
2019-01-12T00:08:40.069Z,2.23
2019-01-12T00:11:09.738Z,1.87
2019-01-12T00:13:39.366Z,2.80
2019-01-12T00:16:09.041Z,2.00
2019-01-12T00:18:41.860Z,2.87
2019-01-12T00:21:12.884Z,2.73
2019-01-12T00:23:43.658Z,2.00
2019-01-12T00:26:13.352Z,2.37
2019-01-12T00:28:43.059Z,1.00
2019-01-12T00:31:14.193Z,2.97
2019-01-12T00:33:43.953Z,3.00
2019-01-12T00:36:13.534Z,2.07
2019-01-12T00:38:43.281Z,1.53
2019-01-12T00:41:13.755Z,0.97
2019-01-12T00:43:43.584Z,1.63
2019-01-12T00:46:13.246Z,0.97
2019-01-12T00:48:42.880Z,1.07
2019-01-12T00:51:12.603Z,1.13
2019-01-12T00:53:42.665Z,0.80
2019-01-12T00:56:12.282Z,1.17
2019-01-12T00:58:41.980Z,1.07
2019-01-12T01:01:11.703Z,1.10
2019-01-12T01:03:42.036Z,0.87
2019-01-12T01:06:12.032Z,0.43
2019-01-12T01:08:41.818Z,1.47
2019-01-12T01:11:11.911Z,1.30
2019-01-12T01:13:41.662Z,1.00
2019-01-12T01:16:11.328Z,1.40
2019-01-12T01:18:40.946Z,1.50
2019-01-12T01:21:10.598Z,1.83
2019-01-12T01:23:40.276Z,0.93
2019-01-12T01:26:09.910Z,0.97
2019-01-12T01:28:40.058Z,1.30
2019-01-12T01:31:09.769Z,1.40
2019-01-12T01:33:39.788Z,1.53
2019-01-12T01:36:09.747Z,1.43
2019-01-12T01:38:39.335Z,0.97
2019-01-12T01:41:09.043Z,1.30
2019-01-12T01:43:39.072Z,0.97
2019-01-12T01:46:08.663Z,0.80
2019-01-12T01:48:38.389Z,1.13
2019-01-12T01:51:08.048Z,0.43
2019-01-12T01:53:38.375Z,1.37
2019-01-12T01:56:07.985Z,1.03
2019-01-12T01:58:38.032Z,0.97
2019-01-12T02:01:07.756Z,0.87
2019-01-12T02:03:37.664Z,1.17
2019-01-12T02:06:07.277Z,0.60
2019-01-12T02:08:36.943Z,1.07
2019-01-12T02:11:06.547Z,0.97
2019-01-12T02:13:36.299Z,1.67
2019-01-12T02:16:05.948Z,0.83
2019-01-12T02:18:35.811Z,1.47
2019-01-12T02:21:05.838Z,1.57
2019-01-12T02:23:35.492Z,1.10
2019-01-12T02:26:05.213Z,1.77
2019-01-12T02:28:35.502Z,0.40
2019-01-12T02:31:05.342Z,1.73
2019-01-12T02:33:34.943Z,1.07
2019-01-12T02:36:05.096Z,1.03
2019-01-12T02:38:34.727Z,1.10
2019-01-12T02:41:04.417Z,0.70
2019-01-12T02:43:34.191Z,1.70
2019-01-12T02:46:03.822Z,1.20
2019-01-12T02:48:34.073Z,1.13
2019-01-12T02:51:04.198Z,1.00
2019-01-12T02:53:34.131Z,0.63
2019-01-12T02:56:03.758Z,1.47
2019-01-12T02:58:33.357Z,0.90
2019-01-12T03:01:03.112Z,0.47
2019-01-12T03:03:32.795Z,0.53
2019-01-12T03:06:02.896Z,0.60
2019-01-12T03:08:32.503Z,1.27
2019-01-12T03:11:02.558Z,1.40
2019-01-12T03:13:32.443Z,0.77
2019-01-12T03:16:02.130Z,1.13
2019-01-12T03:18:31.761Z,0.40
2019-01-12T03:21:01.483Z,0.67
2019-01-12T03:23:31.147Z,0.90
2019-01-12T03:26:01.005Z,0.57
2019-01-12T03:28:31.428Z,1.17
2019-01-12T03:31:01.038Z,0.93
2019-01-12T03:33:30.731Z,1.20
2019-01-12T03:36:00.485Z,0.97
2019-01-12T03:38:30.059Z,1.40
2019-01-12T03:40:59.866Z,1.50
2019-01-12T03:43:29.439Z,1.40
2019-01-12T03:45:59.698Z,1.30
2019-01-12T03:48:29.242Z,0.90
2019-01-12T03:50:58.953Z,1.03
2019-01-12T03:53:28.770Z,1.20
2019-01-12T03:55:58.533Z,0.60
2019-01-12T03:58:28.187Z,0.73
2019-01-12T04:00:57.919Z,1.30
2019-01-12T04:03:27.535Z,1.53
2019-01-12T04:05:57.187Z,0.80
2019-01-12T04:08:26.839Z,0.97
2019-01-12T04:10:56.758Z,1.87
2019-01-12T04:13:26.448Z,1.93
2019-01-12T04:15:56.048Z,2.77
2019-01-12T04:18:25.683Z,1.17
2019-01-12T04:20:55.340Z,0.97
2019-01-12T04:23:25.249Z,1.13
2019-01-12T04:25:57.414Z,1.47
2019-01-12T04:28:27.434Z,1.23
2019-01-12T04:30:57.273Z,1.20
2019-01-12T04:33:26.929Z,1.07
2019-01-12T04:35:56.659Z,1.77
2019-01-12T04:38:26.550Z,1.43
2019-01-12T04:40:56.365Z,1.37
2019-01-12T04:43:25.977Z,1.43
2019-01-12T04:45:55.551Z,1.73
2019-01-12T04:48:25.211Z,1.77
2019-01-12T04:50:55.097Z,1.90
2019-01-12T04:53:24.755Z,1.70
2019-01-12T04:55:54.488Z,1.20
2019-01-12T04:58:28.366Z,2.07
2019-01-12T05:00:58.031Z,1.73
2019-01-12T05:03:27.648Z,1.90
2019-01-12T05:05:57.272Z,1.40
2019-01-12T05:08:26.938Z,1.57
2019-01-12T05:10:56.606Z,2.20
2019-01-12T05:13:26.538Z,1.77
2019-01-12T05:15:56.200Z,1.80
2019-01-12T05:18:25.850Z,1.60
2019-01-12T05:20:55.557Z,1.60
2019-01-12T05:23:25.149Z,1.47
2019-01-12T05:25:55.195Z,1.50
2019-01-12T05:28:24.856Z,1.40
2019-01-12T05:30:54.568Z,1.30
2019-01-12T05:33:24.338Z,1.17
2019-01-12T05:35:53.949Z,1.87
2019-01-12T05:38:23.563Z,0.90
2019-01-12T05:40:59.792Z,1.13
2019-01-12T05:43:29.469Z,1.13
2019-01-12T05:45:59.131Z,1.13
2019-01-12T05:48:28.756Z,0.73
2019-01-12T05:50:58.384Z,1.40
2019-01-12T05:53:29.184Z,0.63
2019-01-12T05:55:59.264Z,1.17
2019-01-12T05:58:29.167Z,1.07
2019-01-12T06:00:59.123Z,1.07
2019-01-12T06:03:28.855Z,0.60
2019-01-12T06:05:59.280Z,0.73
2019-01-12T06:08:28.930Z,0.90
2019-01-12T06:10:58.515Z,0.53
2019-01-12T06:13:28.241Z,1.20
2019-01-12T06:15:57.933Z,0.47
2019-01-12T06:18:27.929Z,0.40
2019-01-12T06:20:57.560Z,0.87
2019-01-12T06:23:27.176Z,1.90
2019-01-12T06:26:03.682Z,1.57
2019-01-12T06:28:30.118Z,1.47
2019-01-12T06:30:59.886Z,0.60
2019-01-12T06:33:29.796Z,1.20
2019-01-12T06:35:59.492Z,0.53
2019-01-12T06:38:29.125Z,1.37
2019-01-12T06:40:58.798Z,0.80
2019-01-12T06:43:28.690Z,1.30
2019-01-12T06:45:58.357Z,0.77
2019-01-12T06:48:28.444Z,0.70
2019-01-12T06:50:58.023Z,1.40
2019-01-12T06:53:27.641Z,0.93
2019-01-12T06:55:57.303Z,0.53
2019-01-12T06:58:26.939Z,1.47
2019-01-12T07:00:56.928Z,0.70
2019-01-12T07:03:26.588Z,0.23
2019-01-12T07:05:56.356Z,1.07
2019-01-12T07:08:26.294Z,1.03
2019-01-12T07:10:55.895Z,0.80
2019-01-12T07:13:25.704Z,1.27
2019-01-12T07:15:55.439Z,1.07
2019-01-12T07:18:25.103Z,1.73
2019-01-12T07:20:54.891Z,1.37
2019-01-12T07:23:24.495Z,1.27
2019-01-12T07:25:54.139Z,1.30
2019-01-12T07:28:24.199Z,1.40
2019-01-12T07:30:54.154Z,1.40
2019-01-12T07:33:24.243Z,1.50
2019-01-12T07:35:53.891Z,1.30
2019-01-12T07:38:23.577Z,1.40
2019-01-12T07:40:54.778Z,1.07
2019-01-12T07:43:24.479Z,1.30
2019-01-12T07:45:55.675Z,1.07
2019-01-12T07:48:25.349Z,1.40
2019-01-12T07:50:55.142Z,0.83
2019-01-12T07:53:25.178Z,0.67
2019-01-12T07:55:54.763Z,1.73
2019-01-12T07:58:24.452Z,1.30
2019-01-12T08:00:54.093Z,1.30
2019-01-12T08:03:23.745Z,1.40
2019-01-12T08:05:53.631Z,1.43
2019-01-12T08:08:23.283Z,1.13
2019-01-12T08:10:52.859Z,0.47
2019-01-12T08:13:22.540Z,1.70
2019-01-12T08:15:52.158Z,1.37
2019-01-12T08:18:22.043Z,1.00
2019-01-12T08:20:51.699Z,0.93
2019-01-12T08:23:21.294Z,1.67
2019-01-12T08:25:51.338Z,1.67
2019-01-12T08:28:20.979Z,0.47
2019-01-12T08:30:50.635Z,1.80
2019-01-12T08:33:20.588Z,1.83
2019-01-12T08:35:50.346Z,1.60
2019-01-12T08:38:21.506Z,2.27
2019-01-12T08:40:51.107Z,2.40
2019-01-12T08:43:20.755Z,1.93
2019-01-12T08:45:50.484Z,1.30
2019-01-12T08:48:20.625Z,2.07
2019-01-12T08:50:50.783Z,2.97
2019-01-12T08:53:21.631Z,1.53
2019-01-12T08:55:51.243Z,1.57
2019-01-12T08:58:21.243Z,2.47
2019-01-12T09:00:51.260Z,2.40
2019-01-12T09:03:22.516Z,2.13
2019-01-12T09:05:52.396Z,4.33
2019-01-12T09:08:22.280Z,1.30
2019-01-12T09:10:53.252Z,2.53
2019-01-12T09:13:23.109Z,2.33
2019-01-12T09:15:53.236Z,2.03
2019-01-12T09:18:23.024Z,2.27
2019-01-12T09:20:54.341Z,4.47
2019-01-12T09:23:26.602Z,2.63
2019-01-12T09:25:56.879Z,2.77
2019-01-12T09:28:26.836Z,4.47
2019-01-12T09:31:02.470Z,2.67
2019-01-12T09:33:32.498Z,4.27
2019-01-12T09:36:03.514Z,4.17
2019-01-12T09:38:33.856Z,4.03
2019-01-12T09:41:03.677Z,2.93
2019-01-12T09:43:33.888Z,4.20
2019-01-12T09:46:03.472Z,4.07
2019-01-12T09:48:33.161Z,5.27
2019-01-12T09:51:02.739Z,3.17
2019-01-12T09:53:32.348Z,2.97
2019-01-12T09:56:01.922Z,4.00
2019-01-12T09:58:31.808Z,6.03
2019-01-12T10:01:02.053Z,5.70
2019-01-12T10:03:32.625Z,6.87
2019-01-12T10:06:02.978Z,4.30
2019-01-12T10:08:33.889Z,5.23
2019-01-12T10:11:03.707Z,5.00
2019-01-12T10:13:33.641Z,6.70
2019-01-12T10:16:03.534Z,7.13
2019-01-12T10:18:33.496Z,4.87
2019-01-12T10:21:03.684Z,3.60
2019-01-12T10:23:33.867Z,4.83
2019-01-12T10:26:04.126Z,4.23
2019-01-12T10:28:34.120Z,4.97
2019-01-12T10:31:04.139Z,3.47
2019-01-12T10:33:34.307Z,2.07
2019-01-12T10:36:04.492Z,2.63
2019-01-12T10:38:35.676Z,7.07
2019-01-12T10:41:05.866Z,4.17
2019-01-12T10:43:38.078Z,6.60
2019-01-12T10:46:09.839Z,4.23
2019-01-12T10:48:40.854Z,7.33
2019-01-12T10:51:11.325Z,5.67
2019-01-12T10:53:41.601Z,7.13
2019-01-12T10:56:11.722Z,6.20
2019-01-12T10:58:42.283Z,4.40
2019-01-12T11:01:12.549Z,4.57
2019-01-12T11:03:42.790Z,4.83
2019-01-12T11:06:12.938Z,6.13
2019-01-12T11:08:43.052Z,7.70
2019-01-12T11:11:13.394Z,7.17
2019-01-12T11:13:43.580Z,4.30
2019-01-12T11:16:13.803Z,5.37
2019-01-12T11:18:43.638Z,3.37
2019-01-12T11:21:13.743Z,4.00
2019-01-12T11:23:43.548Z,5.77
2019-01-12T11:26:13.437Z,5.23
2019-01-12T11:28:44.743Z,5.43
2019-01-12T11:31:19.765Z,4.67
2019-01-12T11:33:46.582Z,4.43
2019-01-12T11:36:16.546Z,5.27
2019-01-12T11:38:46.338Z,3.73
2019-01-12T11:41:16.434Z,4.20
2019-01-12T11:43:46.413Z,2.23
2019-01-12T11:46:16.785Z,2.87
2019-01-12T11:48:53.855Z,1.23
2019-01-12T11:51:23.869Z,2.83
2019-01-12T11:53:55.926Z,2.30
2019-01-12T11:56:26.165Z,0.80
2019-01-12T11:58:56.680Z,4.63
2019-01-12T12:01:27.434Z,2.43
2019-01-12T12:03:57.284Z,3.73
2019-01-12T12:06:28.692Z,2.30
2019-01-12T12:08:58.446Z,1.63
2019-01-12T12:11:29.336Z,2.70
2019-01-12T12:13:59.496Z,3.50
2019-01-12T12:16:29.494Z,1.70
2019-01-12T12:19:00.188Z,1.27
2019-01-12T12:21:32.530Z,1.20
2019-01-12T12:24:02.383Z,2.10
2019-01-12T12:26:32.243Z,2.10
2019-01-12T12:29:03.260Z,2.50
2019-01-12T12:31:34.080Z,2.17
2019-01-12T12:34:03.914Z,1.37
2019-01-12T12:36:33.979Z,2.40
2019-01-12T12:39:05.235Z,1.43
2019-01-12T12:41:35.518Z,2.00
2019-01-12T12:44:05.640Z,1.53
2019-01-12T12:46:35.459Z,1.43
2019-01-12T12:49:06.205Z,1.50
2019-01-12T12:51:36.295Z,1.73
2019-01-12T12:54:06.706Z,2.20
2019-01-12T12:56:37.181Z,1.83
2019-01-12T12:59:07.172Z,1.97
2019-01-12T13:01:37.494Z,1.63
2019-01-12T13:04:07.751Z,1.20
2019-01-12T13:06:37.545Z,1.70
2019-01-12T13:09:09.274Z,1.77
2019-01-12T13:11:39.380Z,0.93
2019-01-12T13:14:09.239Z,1.23
2019-01-12T13:16:39.171Z,1.90
2019-01-12T13:19:08.792Z,1.13
2019-01-12T13:21:38.798Z,0.40
2019-01-12T13:24:09.115Z,2.23
2019-01-12T13:26:39.622Z,1.97
2019-01-12T13:29:10.577Z,1.60
2019-01-12T13:31:40.992Z,1.87
2019-01-12T13:34:11.973Z,1.93
2019-01-12T13:36:42.792Z,1.90
2019-01-12T13:39:12.648Z,1.87
2019-01-12T13:41:42.652Z,1.20
2019-01-12T13:44:12.965Z,0.63
2019-01-12T13:46:43.313Z,2.50
2019-01-12T13:49:13.308Z,1.87
2019-01-12T13:51:43.359Z,1.17
2019-01-12T13:54:13.524Z,0.67
2019-01-12T13:56:43.843Z,1.20
2019-01-12T13:59:14.960Z,1.97
2019-01-12T14:01:45.354Z,1.60
2019-01-12T14:04:14.954Z,1.03
2019-01-12T14:06:46.171Z,1.70
2019-01-12T14:09:16.037Z,1.77
2019-01-12T14:11:46.313Z,2.20
2019-01-12T14:14:18.416Z,1.33
2019-01-12T14:16:48.433Z,2.07
2019-01-12T14:19:18.905Z,1.40
2019-01-12T14:21:51.054Z,2.13
2019-01-12T14:24:21.563Z,1.03
2019-01-12T14:26:51.782Z,2.43
2019-01-12T14:29:21.944Z,2.63
2019-01-12T14:31:51.873Z,2.23
2019-01-12T14:34:21.936Z,2.03
2019-01-12T14:36:52.080Z,1.30
2019-01-12T14:39:21.978Z,2.87
2019-01-12T14:41:51.991Z,2.70
2019-01-12T14:44:23.445Z,1.80
2019-01-12T14:46:53.632Z,2.30
2019-01-12T14:49:23.808Z,1.47
2019-01-12T14:51:53.632Z,2.87
2019-01-12T14:54:23.750Z,3.07
2019-01-12T14:56:54.149Z,1.60
2019-01-12T14:59:25.238Z,2.90
2019-01-12T15:01:55.268Z,2.93
2019-01-12T15:04:25.323Z,1.67
2019-01-12T15:06:55.150Z,1.97
2019-01-12T15:09:25.395Z,1.37
2019-01-12T15:11:55.378Z,2.73
2019-01-12T15:14:25.291Z,1.57
2019-01-12T15:17:02.741Z,2.20
2019-01-12T15:19:33.849Z,1.63
2019-01-12T15:22:22.869Z,2.07
2019-01-12T15:24:52.745Z,1.70
2019-01-12T15:27:23.046Z,2.23
2019-01-12T15:29:52.996Z,3.10
2019-01-12T15:32:23.084Z,2.30
2019-01-12T15:34:53.142Z,2.70
2019-01-12T15:37:23.269Z,0.87
2019-01-12T15:39:53.100Z,1.87
2019-01-12T15:42:23.149Z,0.60
2019-01-12T15:44:53.172Z,2.43
2019-01-12T15:47:23.392Z,1.10
2019-01-12T15:49:55.600Z,0.63
2019-01-12T15:52:25.795Z,3.00
2019-01-12T15:54:56.954Z,1.97
2019-01-12T15:57:27.234Z,2.87
2019-01-12T15:59:57.586Z,1.40
2019-01-12T16:02:28.122Z,2.40
2019-01-12T16:05:00.229Z,2.57
2019-01-12T16:07:30.531Z,0.93
2019-01-12T16:10:00.401Z,1.07
2019-01-12T16:12:30.742Z,1.93
2019-01-12T16:15:00.761Z,2.40
2019-01-12T16:17:30.922Z,2.43
2019-01-12T16:20:01.227Z,1.13
2019-01-12T16:22:34.131Z,2.03
2019-01-12T16:25:03.775Z,1.37
2019-01-12T16:27:35.235Z,4.10
2019-01-12T16:30:05.866Z,1.73
2019-01-12T16:32:35.465Z,1.97
2019-01-12T16:35:05.547Z,2.33
2019-01-12T16:37:35.769Z,0.83
2019-01-12T16:40:06.913Z,2.70
2019-01-12T16:42:37.925Z,1.43
2019-01-12T16:45:08.435Z,1.50
2019-01-12T16:47:38.152Z,2.33
2019-01-12T16:50:08.850Z,2.00
2019-01-12T16:52:38.765Z,1.87
2019-01-12T16:55:10.617Z,2.67
2019-01-12T16:57:40.581Z,2.43
2019-01-12T17:00:35.659Z,2.63
2019-01-12T17:03:06.372Z,2.40
2019-01-12T17:05:36.185Z,3.13
2019-01-12T17:08:06.387Z,2.93
2019-01-12T17:10:36.267Z,3.00
2019-01-12T17:13:06.234Z,2.53
2019-01-12T17:15:35.880Z,3.27
2019-01-12T17:18:06.634Z,3.20
2019-01-12T17:20:36.416Z,1.83
2019-01-12T17:23:13.687Z,1.30
2019-01-12T17:25:44.337Z,2.77
2019-01-12T17:28:15.297Z,3.33
2019-01-12T17:30:46.732Z,1.37
2019-01-12T17:33:18.231Z,1.77
2019-01-12T17:35:48.243Z,2.97
2019-01-12T17:38:18.270Z,2.67
2019-01-12T17:40:49.371Z,1.27
2019-01-12T17:43:19.226Z,2.37
2019-01-12T17:45:51.300Z,3.50
2019-01-12T17:48:21.201Z,3.20
2019-01-12T17:50:51.386Z,2.57
2019-01-12T17:53:23.716Z,1.93
2019-01-12T17:55:53.766Z,2.07
2019-01-12T17:58:23.840Z,1.80
2019-01-12T18:00:54.237Z,1.23
2019-01-12T18:03:26.196Z,2.63
2019-01-12T18:05:56.330Z,2.20
2019-01-12T18:08:26.455Z,1.43
2019-01-12T18:11:09.602Z,3.07
2019-01-12T18:13:58.609Z,1.60
2019-01-12T18:16:29.334Z,2.73
2019-01-12T18:18:59.279Z,1.63
2019-01-12T18:21:29.401Z,1.40
2019-01-12T18:23:59.320Z,1.70
2019-01-12T18:26:29.278Z,2.07
2019-01-12T18:28:59.751Z,1.27
2019-01-12T18:31:32.319Z,2.57
2019-01-12T18:34:02.369Z,2.77
2019-01-12T18:36:32.438Z,1.73
2019-01-12T18:39:06.335Z,2.63
2019-01-12T18:41:36.122Z,2.43
2019-01-12T18:44:06.392Z,1.27
2019-01-12T18:46:36.536Z,1.43
2019-01-12T18:49:06.534Z,1.70
2019-01-12T18:51:36.488Z,2.37
2019-01-12T18:54:06.493Z,1.93
2019-01-12T18:56:36.830Z,1.40
2019-01-12T18:59:06.567Z,1.83
2019-01-12T19:01:36.614Z,1.20
2019-01-12T19:04:06.470Z,0.53
2019-01-12T19:06:36.598Z,1.50
2019-01-12T19:09:08.373Z,1.40
2019-01-12T19:11:44.567Z,1.93
2019-01-12T19:14:16.935Z,1.47
2019-01-12T19:16:48.557Z,1.27
2019-01-12T19:19:18.752Z,1.67
2019-01-12T19:21:48.861Z,2.27
2019-01-12T19:24:18.586Z,2.23
2019-01-12T19:26:49.147Z,2.77
2019-01-12T19:29:19.140Z,1.57
2019-01-12T19:31:49.207Z,2.37
2019-01-12T19:34:19.266Z,1.53
2019-01-12T19:36:49.466Z,2.00
2019-01-12T19:39:19.350Z,2.20
2019-01-12T19:41:49.621Z,1.73
2019-01-12T19:44:19.493Z,1.60
2019-01-12T19:46:50.219Z,2.70
2019-01-12T19:49:20.338Z,1.53
2019-01-12T19:51:50.427Z,1.90
2019-01-12T19:54:20.216Z,1.60
2019-01-12T19:56:50.094Z,2.80
2019-01-12T19:59:19.939Z,2.40
2019-01-12T20:01:49.763Z,1.27
2019-01-12T20:04:19.798Z,2.00
2019-01-12T20:06:49.445Z,1.90
2019-01-12T20:09:19.249Z,3.30
2019-01-12T20:11:49.450Z,2.83
2019-01-12T20:14:19.350Z,1.53
2019-01-12T20:16:49.193Z,1.40
2019-01-12T20:19:19.021Z,1.43
2019-01-12T20:21:48.807Z,2.50
2019-01-12T20:24:19.065Z,2.70
2019-01-12T20:26:49.638Z,1.43
2019-01-12T20:29:21.275Z,2.97
2019-01-12T20:32:37.778Z,2.23
2019-01-12T20:35:29.019Z,1.63
2019-01-12T20:38:45.262Z,2.10
2019-01-12T20:41:50.788Z,2.27
2019-01-12T20:45:09.562Z,1.63
2019-01-12T20:48:08.977Z,2.40
2019-01-12T20:50:52.946Z,2.47
2019-01-12T20:54:21.858Z,1.13
2019-01-12T20:57:02.888Z,2.47
2019-01-12T20:59:47.651Z,1.50
2019-01-12T21:03:01.368Z,3.20
2019-01-12T21:05:48.782Z,2.00
2019-01-12T21:09:08.357Z,2.20
2019-01-12T21:12:27.157Z,2.37
2019-01-12T21:15:02.246Z,0.90
2019-01-12T21:17:32.751Z,1.23
2019-01-12T21:20:03.091Z,1.80
2019-01-12T21:22:34.496Z,1.83
2019-01-12T21:25:05.903Z,2.50
2019-01-12T21:27:36.870Z,1.47
2019-01-12T21:30:10.442Z,2.37
2019-01-12T21:32:40.572Z,2.60
2019-01-12T21:35:11.109Z,2.10
2019-01-12T21:37:42.461Z,0.77
2019-01-12T21:40:12.776Z,1.83
2019-01-12T21:42:45.571Z,1.60
2019-01-12T21:45:16.064Z,0.50
2019-01-12T21:47:46.340Z,2.70
2019-01-12T21:50:16.968Z,1.30
2019-01-12T21:52:47.428Z,2.60
2019-01-12T21:55:18.214Z,1.73
2019-01-12T21:57:48.942Z,2.17
2019-01-12T22:00:19.379Z,1.80
2019-01-12T22:02:50.483Z,2.27
2019-01-12T22:05:22.029Z,2.30
2019-01-12T22:07:53.307Z,1.27
2019-01-12T22:10:23.297Z,2.00
2019-01-12T22:12:53.790Z,1.67
2019-01-12T22:15:26.199Z,1.50
2019-01-12T22:17:56.596Z,2.53
2019-01-12T22:20:26.636Z,1.13
2019-01-12T22:22:56.506Z,2.00
2019-01-12T22:25:27.294Z,2.70
2019-01-12T22:27:57.214Z,2.17
2019-01-12T22:30:27.268Z,2.03
2019-01-12T22:32:56.967Z,1.43
2019-01-12T22:35:27.131Z,1.90
2019-01-12T22:37:57.161Z,1.47
2019-01-12T22:40:27.186Z,1.73
2019-01-12T22:42:56.884Z,1.10
2019-01-12T22:45:26.525Z,1.57
2019-01-12T22:47:56.469Z,0.93
2019-01-12T22:50:26.502Z,3.27
2019-01-12T22:52:56.832Z,2.00
2019-01-12T22:55:26.803Z,2.17
2019-01-12T22:57:57.818Z,1.47
2019-01-12T23:00:48.909Z,0.80
2019-01-12T23:03:19.777Z,1.20
2019-01-12T23:05:49.985Z,1.07
2019-01-12T23:08:20.174Z,1.50
2019-01-12T23:10:50.138Z,2.60
2019-01-12T23:13:19.952Z,2.37
2019-01-12T23:15:50.837Z,0.77
2019-01-12T23:18:20.817Z,2.53
2019-01-12T23:20:50.428Z,0.70
2019-01-12T23:23:20.123Z,1.67
2019-01-12T23:25:51.248Z,0.93
2019-01-12T23:28:20.854Z,1.37
2019-01-12T23:30:50.812Z,1.30
2019-01-12T23:33:20.495Z,1.17
2019-01-12T23:35:50.516Z,2.83
2019-01-12T23:38:20.528Z,2.27
2019-01-12T23:40:50.502Z,1.27
2019-01-12T23:43:20.228Z,1.87
2019-01-12T23:45:49.924Z,2.47
2019-01-12T23:48:20.854Z,1.57
2019-01-12T23:50:50.458Z,2.30
2019-01-12T23:53:20.181Z,1.80
2019-01-12T23:55:50.906Z,2.13
2019-01-12T23:58:20.595Z,1.80
